Boston, Massachusetts
Current Conditions -  °F | °C
As of 9:54 PM on Monday 22 Dec 2014 (Local Time) from KBOS Reporting Station
Scattered Clouds Scattered Clouds  
Wind Chill: 35°   Ceiling: Unl
Heat Index: 42°   Visibility: 10mi
Dew Point: 37°   Wind: 15mph
Humidity: 82%   Direction: 100°E
Pressure: 30.3"   Gusts: NA
Location:  42.36°N, 71.06°W
Report Text: KBOS 230254Z 10013KT 10SM FEW031 SCT046 06/03 A3030 RMK AO2 SLP261 60000 T00560028 58010
Loading
Personal Weather Stations






























Interactive Weather Map New forecast layout! Learn more

10-Day Weather Forecast

Advertisements
Track Severe Weather on mobile